Time;durP1;ratioP1;P1;durP2;ratioP2;P2;SDS_P1;SDS_P2;PMS_P1;PMS_P2;Temp;Humidity;BMP_temperature;BMP_pressure;BME280_temperature;BME280_humidity;BME280_pressure;Samples;Min_cycle;Max_cycle;Signal;HPM_P1;HPM_P2
2021/12/30 00:00:21;;;;;;;3.57;1.80;;;19.40;69.40;;;;;;5037474;28;20196;-14
2021/12/30 00:02:47;;;;;;;2.93;1.80;;;19.40;69.70;;;;;;5054727;28;20198;-15
2021/12/30 00:05:14;;;;;;;2.60;1.73;;;19.40;70.00;;;;;;5053616;28;20541;-17
2021/12/30 00:07:40;;;;;;;1.90;1.47;;;19.30;70.30;;;;;;5054192;28;20173;-15
2021/12/30 00:10:06;;;;;;;2.83;1.70;;;19.30;70.30;;;;;;5055351;28;20183;-15
2021/12/30 00:12:32;;;;;;;2.67;1.50;;;19.30;70.50;;;;;;5055766;28;20171;-18
2021/12/30 00:14:58;;;;;;;3.50;1.70;;;19.30;70.70;;;;;;5055812;28;20176;-15
2021/12/30 00:17:24;;;;;;;4.20;2.00;;;19.30;71.10;;;;;;5056009;28;20251;-15
2021/12/30 00:19:50;;;;;;;3.37;1.67;;;19.30;71.20;;;;;;5038167;28;20569;-15
2021/12/30 00:22:16;;;;;;;2.43;1.80;;;19.30;71.40;;;;;;5055155;28;20597;-16
2021/12/30 00:24:41;;;;;;;1.80;1.50;;;19.20;71.60;;;;;;5053882;28;20258;-14
2021/12/30 00:27:07;;;;;;;2.57;1.50;;;19.20;71.70;;;;;;5053476;28;20701;-15
2021/12/30 00:29:33;;;;;;;2.13;1.80;;;19.20;71.90;;;;;;5053885;28;20211;-16
2021/12/30 00:31:59;;;;;;;2.87;1.60;;;19.10;72.10;;;;;;5036666;28;20175;-17
2021/12/30 00:34:25;;;;;;;3.27;2.00;;;19.10;72.20;;;;;;5055736;28;20179;-14
2021/12/30 00:36:51;;;;;;;2.30;1.70;;;19.10;72.30;;;;;;5056194;28;20204;-15
2021/12/30 00:39:17;;;;;;;2.37;1.80;;;19.10;72.40;;;;;;5055741;28;20176;-15
2021/12/30 00:41:42;;;;;;;1.93;1.53;;;19.10;72.50;;;;;;5037799;28;20188;-14
2021/12/30 00:44:08;;;;;;;2.30;1.40;;;19.10;72.70;;;;;;5054951;28;20272;-17
2021/12/30 00:46:34;;;;;;;3.00;1.90;;;19.00;72.90;;;;;;5053862;28;20239;-14
2021/12/30 00:49:00;;;;;;;2.47;1.80;;;19.10;73.00;;;;;;5036334;28;20225;-15
2021/12/30 00:51:25;;;;;;;3.27;1.90;;;19.00;73.10;;;;;;5053733;28;20195;-15
2021/12/30 00:53:51;;;;;;;3.23;1.80;;;19.00;73.30;;;;;;5052873;28;20481;-17
2021/12/30 00:56:17;;;;;;;3.97;1.80;;;19.00;73.50;;;;;;5054911;28;20269;-15
2021/12/30 00:58:43;;;;;;;3.60;1.57;;;19.00;73.40;;;;;;5037974;28;20578;-18
2021/12/30 01:01:08;;;;;;;2.67;1.70;;;19.00;73.70;;;;;;5036376;28;20176;-15
2021/12/30 01:03:34;;;;;;;3.17;1.70;;;19.00;73.80;;;;;;5053427;28;20447;-17
2021/12/30 01:06:01;;;;;;;2.47;1.57;;;19.00;74.00;;;;;;5053055;28;20569;-15
2021/12/30 01:08:27;;;;;;;4.50;1.90;;;18.90;74.10;;;;;;5053928;28;20175;-16
2021/12/30 01:10:53;;;;;;;2.70;1.80;;;18.90;74.20;;;;;;5034788;28;20177;-14
2021/12/30 01:13:24;;;;;;;4.20;2.10;;;18.90;74.40;;;;;;5053733;28;20187;-14
2021/12/30 01:16:02;;;;;;;3.10;1.87;;;18.90;74.30;;;;;;5035819;28;20604;-14
2021/12/30 01:18:53;;;;;;;2.83;1.60;;;18.90;74.60;;;;;;5054633;28;20283;-15
2021/12/30 01:21:20;;;;;;;3.40;1.93;;;18.90;74.90;;;;;;5037496;28;20251;-16
2021/12/30 01:23:46;;;;;;;3.03;1.83;;;18.90;75.00;;;;;;5037221;28;20181;-16
2021/12/30 01:26:11;;;;;;;3.47;1.87;;;18.80;74.90;;;;;;5037291;28;20191;-21
2021/12/30 01:28:41;;;;;;;3.20;1.87;;;18.80;75.20;;;;;;5037829;28;20180;-15
2021/12/30 01:31:08;;;;;;;3.53;1.97;;;18.80;75.30;;;;;;5054541;28;20183;-15
2021/12/30 01:33:34;;;;;;;2.10;1.70;;;18.80;75.50;;;;;;5053012;28;20533;-15
2021/12/30 01:36:00;;;;;;;3.60;1.73;;;18.80;75.50;;;;;;5053179;28;20208;-15
2021/12/30 01:38:26;;;;;;;3.30;2.00;;;18.80;75.70;;;;;;5035582;28;20237;-15
2021/12/30 01:40:54;;;;;;;2.60;1.80;;;18.80;75.90;;;;;;5037166;28;20274;-16
2021/12/30 01:43:20;;;;;;;3.33;1.80;;;18.80;76.00;;;;;;5037967;28;20236;-15
2021/12/30 01:45:47;;;;;;;3.87;1.90;;;18.70;75.90;;;;;;5054391;28;20268;-15
2021/12/30 01:48:13;;;;;;;3.83;1.77;;;18.70;76.00;;;;;;5038286;28;20180;-14
2021/12/30 01:50:40;;;;;;;2.73;1.57;;;18.70;76.20;;;;;;5037405;28;20333;-15
2021/12/30 01:53:06;;;;;;;2.83;1.83;;;18.70;76.40;;;;;;5054611;28;20180;-15
2021/12/30 01:55:35;;;;;;;4.90;2.10;;;18.70;76.40;;;;;;5053193;28;20199;-18
2021/12/30 01:58:02;;;;;;;3.07;1.50;;;18.70;76.60;;;;;;5054141;28;20330;-15
2021/12/30 02:00:29;;;;;;;2.47;1.60;;;18.70;76.60;;;;;;5052474;28;20261;-14
2021/12/30 02:02:55;;;;;;;4.03;2.00;;;18.70;76.70;;;;;;5054204;28;20322;-18
2021/12/30 02:05:21;;;;;;;4.07;1.80;;;18.70;76.90;;;;;;5054372;28;20298;-14
2021/12/30 02:07:47;;;;;;;2.93;1.60;;;18.70;76.90;;;;;;5037575;28;20217;-14
2021/12/30 02:10:14;;;;;;;3.40;1.90;;;18.70;77.00;;;;;;5053601;28;20226;-15
2021/12/30 02:12:41;;;;;;;3.17;1.97;;;18.60;76.90;;;;;;5039164;28;20168;-15
2021/12/30 02:15:11;;;;;;;3.37;1.73;;;18.60;77.00;;;;;;5040494;28;20580;-16
2021/12/30 02:17:38;;;;;;;2.50;1.60;;;18.60;77.20;;;;;;5038606;28;20288;-15
2021/12/30 02:20:08;;;;;;;3.03;1.70;;;18.60;77.30;;;;;;5055238;28;20179;-15
2021/12/30 02:22:33;;;;;;;3.97;1.60;;;18.60;77.80;;;;;;5037156;28;20179;-17
2021/12/30 02:24:59;;;;;;;2.70;1.67;;;18.60;78.10;;;;;;5038994;28;20171;-14
2021/12/30 02:27:27;;;;;;;3.07;1.63;;;18.60;77.50;;;;;;5056259;28;20234;-17
2021/12/30 02:29:52;;;;;;;3.53;1.67;;;18.60;77.60;;;;;;5055664;28;20170;-14
2021/12/30 02:32:25;;;;;;;3.03;1.57;;;18.60;77.70;;;;;;5038558;28;20245;-15
2021/12/30 02:34:52;;;;;;;2.80;1.60;;;18.60;77.80;;;;;;5056829;28;20175;-15
2021/12/30 02:37:19;;;;;;;5.03;2.00;;;18.60;77.90;;;;;;5039936;28;20257;-16
2021/12/30 02:39:51;;;;;;;3.70;2.00;;;18.60;78.10;;;;;;5039301;28;20179;-15
2021/12/30 02:42:23;;;;;;;3.03;1.60;;;18.60;77.90;;;;;;5056273;28;20199;-16
2021/12/30 02:44:49;;;;;;;3.07;1.70;;;18.60;78.10;;;;;;5056611;28;20210;-16
2021/12/30 02:47:15;;;;;;;3.73;1.83;;;18.60;78.20;;;;;;5057928;28;20240;-16
2021/12/30 02:49:41;;;;;;;2.20;1.40;;;18.50;78.00;;;;;;5058785;28;20259;-16
2021/12/30 02:52:07;;;;;;;3.30;1.70;;;18.50;78.20;;;;;;5039919;28;20567;-15
2021/12/30 02:54:33;;;;;;;3.57;1.90;;;18.50;78.20;;;;;;5057785;28;20184;-15
2021/12/30 02:56:59;;;;;;;3.27;1.53;;;18.50;78.30;;;;;;5039241;28;20207;-16
2021/12/30 02:59:25;;;;;;;5.00;1.90;;;18.50;78.50;;;;;;5057373;28;20253;-17
2021/12/30 03:01:51;;;;;;;2.93;1.60;;;18.50;78.30;;;;;;5056700;28;20198;-15
2021/12/30 03:04:17;;;;;;;2.93;1.70;;;18.50;78.50;;;;;;5039009;28;20225;-17
2021/12/30 03:06:43;;;;;;;3.50;1.80;;;18.50;78.50;;;;;;5038336;28;20186;-19
2021/12/30 03:09:09;;;;;;;2.93;1.70;;;18.50;78.50;;;;;;5055161;28;20596;-17
2021/12/30 03:11:34;;;;;;;2.97;1.90;;;18.50;78.50;;;;;;5057450;28;20495;-17
2021/12/30 03:14:01;;;;;;;4.00;1.90;;;18.50;78.70;;;;;;5056659;28;20187;-18
2021/12/30 03:16:32;;;;;;;2.77;1.63;;;18.50;78.70;;;;;;5057750;28;20207;-17
2021/12/30 03:18:58;;;;;;;3.60;1.60;;;18.50;78.80;;;;;;5038964;28;20193;-15
2021/12/30 03:21:25;;;;;;;2.53;1.47;;;18.50;78.90;;;;;;5039251;28;20168;-19
2021/12/30 03:23:53;;;;;;;3.60;1.90;;;18.50;78.80;;;;;;5037471;28;20169;-15
2021/12/30 03:26:20;;;;;;;3.17;1.70;;;18.50;79.00;;;;;;5038665;28;20202;-17
2021/12/30 03:28:46;;;;;;;3.57;1.70;;;18.40;78.90;;;;;;5037626;28;20402;-16
2021/12/30 03:31:14;;;;;;;3.40;1.70;;;18.40;79.00;;;;;;5037903;28;20180;-17
2021/12/30 03:33:41;;;;;;;3.10;1.70;;;18.40;79.00;;;;;;5039407;28;20176;-16
2021/12/30 03:36:08;;;;;;;2.83;1.90;;;18.40;79.20;;;;;;5058847;28;20294;-30
2021/12/30 03:38:37;;;;;;;3.43;1.77;;;18.40;79.40;;;;;;5058299;28;20173;-17
2021/12/30 03:41:05;;;;;;;3.60;1.70;;;18.40;79.40;;;;;;5039750;28;20183;-15
2021/12/30 03:43:32;;;;;;;3.33;1.30;;;18.40;79.30;;;;;;5057400;28;20173;-17
2021/12/30 03:45:58;;;;;;;4.33;1.80;;;18.40;79.60;;;;;;5057904;28;20230;-17
2021/12/30 03:48:31;;;;;;;4.20;1.83;;;18.40;79.60;;;;;;5055569;28;20176;-16
2021/12/30 03:50:57;;;;;;;3.70;1.87;;;18.30;79.70;;;;;;5055096;28;20245;-16
2021/12/30 03:53:23;;;;;;;4.43;1.80;;;18.30;79.80;;;;;;5054725;28;20176;-15
2021/12/30 03:55:51;;;;;;;3.10;1.70;;;18.30;79.80;;;;;;5056735;28;20226;-17
2021/12/30 03:58:18;;;;;;;3.77;1.57;;;18.30;80.00;;;;;;5039090;28;20204;-15
2021/12/30 04:00:44;;;;;;;3.80;1.67;;;18.30;80.10;;;;;;5056708;28;20241;-15
2021/12/30 04:03:10;;;;;;;2.40;1.27;;;19.50;75.50;;;;;;5038791;28;20172;-17
2021/12/30 04:05:35;;;;;;;3.47;1.40;;;21.50;59.80;;;;;;5039132;28;20176;-15
2021/12/30 04:08:01;;;;;;;2.37;1.30;;;22.10;56.50;;;;;;5039528;28;20184;-17
2021/12/30 04:10:27;;;;;;;2.33;1.30;;;22.30;55.40;;;;;;5037623;28;20177;-16
2021/12/30 04:12:53;;;;;;;3.27;1.60;;;22.40;54.90;;;;;;5054952;28;20229;-16
2021/12/30 04:15:19;;;;;;;2.03;1.40;;;22.70;54.20;;;;;;5037454;28;20177;-17
2021/12/30 04:17:45;;;;;;;2.73;1.30;;;22.90;53.60;;;;;;5038392;28;20541;-16
2021/12/30 04:20:13;;;;;;;2.40;1.20;;;23.00;53.10;;;;;;5056078;28;20215;-19
2021/12/30 04:22:40;;;;;;;2.10;1.33;;;23.00;52.80;;;;;;5055850;28;20211;-16
2021/12/30 04:25:09;;;;;;;2.07;1.30;;;23.00;53.00;;;;;;5038911;28;20172;-18
2021/12/30 04:27:35;;;;;;;2.60;1.20;;;22.90;53.20;;;;;;5056000;28;20202;-17
2021/12/30 04:30:02;;;;;;;2.13;1.30;;;23.00;53.10;;;;;;5038031;28;20236;-16
2021/12/30 04:32:28;;;;;;;2.80;1.50;;;23.20;52.60;;;;;;5054306;28;20266;-18
2021/12/30 04:34:53;;;;;;;2.60;1.40;;;23.40;52.30;;;;;;5036966;28;20486;-17
2021/12/30 04:37:19;;;;;;;2.43;1.53;;;23.50;52.10;;;;;;5053439;28;20201;-17
2021/12/30 04:39:45;;;;;;;2.73;1.33;;;23.40;52.00;;;;;;5037497;28;20164;-21
2021/12/30 04:42:11;;;;;;;2.50;1.23;;;23.30;52.20;;;;;;5055747;28;20576;-18
2021/12/30 04:44:36;;;;;;;1.87;1.30;;;23.20;52.40;;;;;;5055776;28;20509;-17
2021/12/30 04:47:02;;;;;;;2.30;1.13;;;23.20;52.60;;;;;;5055576;28;20172;-18
2021/12/30 04:49:28;;;;;;;2.30;1.30;;;23.20;52.70;;;;;;5038138;28;20172;-18
2021/12/30 04:51:54;;;;;;;2.33;1.23;;;23.10;52.90;;;;;;5054992;28;20168;-17
2021/12/30 04:54:19;;;;;;;2.03;1.40;;;22.90;53.20;;;;;;5055167;28;20523;-18
2021/12/30 04:56:45;;;;;;;2.93;1.33;;;22.90;53.50;;;;;;5054276;28;20593;-16
2021/12/30 04:59:11;;;;;;;2.27;1.30;;;22.80;53.80;;;;;;5037280;28;20554;-17
2021/12/30 05:01:40;;;;;;;2.93;1.33;;;22.60;54.30;;;;;;5035742;28;20237;-17
2021/12/30 05:04:06;;;;;;;1.70;1.23;;;22.50;54.80;;;;;;5055498;28;20637;-17
2021/12/30 05:06:34;;;;;;;2.57;1.20;;;22.30;55.20;;;;;;5055450;28;20296;-19
2021/12/30 05:08:59;;;;;;;1.50;1.20;;;22.20;55.60;;;;;;5055296;28;20179;-18
2021/12/30 05:11:25;;;;;;;1.30;1.10;;;22.10;56.20;;;;;;5055379;28;20167;-17
2021/12/30 05:13:51;;;;;;;2.43;1.30;;;21.90;56.90;;;;;;5055622;28;20183;-17
2021/12/30 05:16:20;;;;;;;1.73;1.17;;;21.80;57.40;;;;;;5037408;28;20205;-17
2021/12/30 05:18:48;;;;;;;1.27;0.90;;;21.70;57.80;;;;;;5035487;28;20184;-16
2021/12/30 05:21:14;;;;;;;3.20;1.20;;;21.70;58.20;;;;;;5035758;28;20424;-17
2021/12/30 05:23:39;;;;;;;2.00;1.30;;;21.60;59.00;;;;;;5035574;28;20171;-16
2021/12/30 05:26:05;;;;;;;1.47;1.17;;;21.50;58.90;;;;;;5054430;28;20227;-18
2021/12/30 05:28:31;;;;;;;1.80;1.20;;;21.30;59.50;;;;;;5055316;28;20179;-17
2021/12/30 05:30:57;;;;;;;1.93;1.00;;;21.20;60.30;;;;;;5054585;28;20190;-16
2021/12/30 05:33:23;;;;;;;1.63;1.20;;;21.00;61.70;;;;;;5053948;28;20618;-18
2021/12/30 05:35:48;;;;;;;2.30;1.27;;;20.80;63.20;;;;;;5055157;28;20664;-18
2021/12/30 05:38:17;;;;;;;1.50;1.10;;;20.70;64.60;;;;;;5055064;28;20169;-18
2021/12/30 05:40:43;;;;;;;1.93;1.20;;;20.50;65.50;;;;;;5036757;28;20547;-17
2021/12/30 05:43:09;;;;;;;1.30;1.00;;;20.40;66.40;;;;;;5035202;28;20229;-16
2021/12/30 05:45:34;;;;;;;1.33;0.97;;;20.40;67.30;;;;;;5034797;28;20670;-16
2021/12/30 05:48:00;;;;;;;1.57;1.10;;;20.30;68.00;;;;;;5055750;28;20481;-16
2021/12/30 05:50:31;;;;;;;3.17;1.10;;;20.20;68.80;;;;;;5058706;28;20221;-16
2021/12/30 05:52:57;;;;;;;1.13;1.00;;;20.20;69.20;;;;;;5058532;28;20167;-18
2021/12/30 05:55:23;;;;;;;1.83;1.10;;;20.30;69.00;;;;;;5058521;28;20177;-18
2021/12/30 05:57:50;;;;;;;1.53;1.00;;;20.40;67.90;;;;;;5058573;28;20263;-19
2021/12/30 06:00:18;;;;;;;2.10;0.90;;;20.80;65.10;;;;;;5058449;28;20533;-16
2021/12/30 06:02:44;;;;;;;1.47;0.97;;;21.40;61.40;;;;;;5057577;28;20208;-17
2021/12/30 06:05:10;;;;;;;1.00;0.90;;;21.90;58.70;;;;;;5057015;28;20282;-17
2021/12/30 06:07:37;;;;;;;0.93;0.70;;;22.50;56.40;;;;;;5040622;28;20255;-17
2021/12/30 06:10:04;;;;;;;0.90;0.90;;;22.80;55.20;;;;;;5040616;28;20178;-17
2021/12/30 06:12:30;;;;;;;0.80;0.80;;;22.90;54.40;;;;;;5058243;28;20164;-16
2021/12/30 06:14:55;;;;;;;2.13;1.00;;;23.00;54.10;;;;;;5059084;28;20183;-16
2021/12/30 06:17:21;;;;;;;1.40;0.90;;;23.10;53.90;;;;;;5039946;28;20210;-16
2021/12/30 06:19:47;;;;;;;1.40;1.00;;;23.10;53.70;;;;;;5058109;28;20176;-16
2021/12/30 06:22:13;;;;;;;1.20;0.80;;;23.20;53.30;;;;;;5057665;28;20164;-16
2021/12/30 06:24:39;;;;;;;1.30;0.90;;;23.30;53.30;;;;;;5057226;28;20277;-18
2021/12/30 06:27:06;;;;;;;3.87;0.90;;;23.20;53.30;;;;;;5055455;28;20172;-17
2021/12/30 06:29:33;;;;;;;1.00;0.90;;;23.20;53.40;;;;;;5055747;28;20177;-17
2021/12/30 06:31:58;;;;;;;0.70;0.70;;;23.10;53.60;;;;;;5056418;28;20168;-18
2021/12/30 06:34:24;;;;;;;1.07;1.00;;;23.00;53.70;;;;;;5039881;28;20234;-16
2021/12/30 06:36:50;;;;;;;0.80;0.80;;;22.90;53.90;;;;;;5057903;28;20286;-16
2021/12/30 06:39:16;;;;;;;2.40;0.93;;;22.80;54.20;;;;;;5039411;28;20439;-16
2021/12/30 06:41:41;;;;;;;1.30;1.00;;;22.70;54.70;;;;;;5040205;28;20173;-17
2021/12/30 06:44:07;;;;;;;1.33;0.80;;;22.50;55.30;;;;;;5056214;28;20168;-17
2021/12/30 06:46:33;;;;;;;1.00;0.87;;;22.50;55.70;;;;;;5057147;28;20173;-16
2021/12/30 06:48:59;;;;;;;1.10;0.90;;;22.30;56.40;;;;;;5056130;28;20182;-16
2021/12/30 06:51:27;;;;;;;1.10;0.70;;;22.00;57.20;;;;;;5055301;28;20267;-16
2021/12/30 06:53:54;;;;;;;3.50;0.90;;;21.90;58.20;;;;;;5056302;28;20171;-17
2021/12/30 06:56:22;;;;;;;1.80;0.80;;;21.70;59.00;;;;;;5039921;28;20335;-16
2021/12/30 06:58:48;;;;;;;1.40;0.90;;;21.50;59.90;;;;;;5057127;28;20170;-17
2021/12/30 07:01:14;;;;;;;1.20;0.70;;;21.30;61.10;;;;;;5056219;28;20167;-18
2021/12/30 07:03:40;;;;;;;0.90;0.70;;;21.20;62.40;;;;;;5038750;28;20208;-18
2021/12/30 07:06:07;;;;;;;1.87;0.90;;;21.10;63.60;;;;;;5057066;28;20202;-17
2021/12/30 07:08:32;;;;;;;0.70;0.67;;;20.90;64.70;;;;;;5039732;28;20214;-17
2021/12/30 07:10:58;;;;;;;0.80;0.80;;;20.80;66.40;;;;;;5038305;28;20266;-17
2021/12/30 07:13:24;;;;;;;1.27;0.63;;;20.70;67.50;;;;;;5055513;28;20282;-17
2021/12/30 07:15:50;;;;;;;0.67;0.67;;;20.60;68.60;;;;;;5037715;28;20207;-17
2021/12/30 07:18:16;;;;;;;0.60;0.60;;;20.50;69.90;;;;;;5038593;28;20285;-17
2021/12/30 07:20:41;;;;;;;0.70;0.70;;;20.50;70.70;;;;;;5056255;28;20413;-17
2021/12/30 07:23:07;;;;;;;1.13;0.80;;;20.40;70.90;;;;;;5056430;28;20211;-19
2021/12/30 07:25:33;;;;;;;0.90;0.80;;;20.50;70.90;;;;;;5056003;28;20174;-16
2021/12/30 07:27:59;;;;;;;1.03;0.60;;;20.60;70.40;;;;;;5055821;28;20176;-16
2021/12/30 07:30:25;;;;;;;1.07;0.80;;;20.70;69.30;;;;;;5055810;28;20202;-17
2021/12/30 07:32:52;;;;;;;1.33;0.70;;;21.00;67.70;;;;;;5054507;28;20175;-18
2021/12/30 07:35:20;;;;;;;1.00;0.73;;;21.30;65.70;;;;;;5054136;28;20258;-16
2021/12/30 07:37:47;;;;;;;0.67;0.63;;;21.50;63.50;;;;;;5037840;28;20524;-19
2021/12/30 07:40:13;;;;;;;0.70;0.60;;;21.90;61.00;;;;;;5055039;28;20224;-17
2021/12/30 07:42:39;;;;;;;0.40;0.40;;;22.30;59.10;;;;;;5056146;28;20267;-17
2021/12/30 07:45:06;;;;;;;0.63;0.60;;;22.60;57.80;;;;;;5055454;28;20183;-17
2021/12/30 07:47:32;;;;;;;1.13;0.60;;;22.80;56.80;;;;;;5054808;28;20181;-16
2021/12/30 07:49:57;;;;;;;0.67;0.60;;;23.00;56.10;;;;;;5038061;28;20649;-18
2021/12/30 07:52:23;;;;;;;0.87;0.50;;;23.10;55.70;;;;;;5037888;28;20278;-17
2021/12/30 07:54:49;;;;;;;1.70;0.70;;;23.00;55.60;;;;;;5053629;28;20454;-17
2021/12/30 07:57:21;;;;;;;2.20;0.70;;;23.00;55.60;;;;;;5053259;28;20301;-17
2021/12/30 07:59:51;;;;;;;0.50;0.50;;;23.00;55.70;;;;;;5036093;28;20254;-17
2021/12/30 08:02:18;;;;;;;0.67;0.60;;;23.00;55.80;;;;;;5053068;28;20172;-17
2021/12/30 08:04:45;;;;;;;0.67;0.60;;;22.80;56.10;;;;;;5037517;28;20172;-18
2021/12/30 08:07:11;;;;;;;0.63;0.60;;;22.70;56.50;;;;;;5055431;28;20228;-17
2021/12/30 08:09:37;;;;;;;0.60;0.60;;;22.60;56.90;;;;;;5037619;28;20204;-16
2021/12/30 08:12:03;;;;;;;0.80;0.60;;;22.50;57.40;;;;;;5037212;28;20187;-16
2021/12/30 08:14:29;;;;;;;0.60;0.40;;;22.40;57.90;;;;;;5054247;28;20175;-17
2021/12/30 08:16:55;;;;;;;0.70;0.70;;;22.20;58.60;;;;;;5036068;28;20225;-19
2021/12/30 08:19:21;;;;;;;0.60;0.50;;;22.10;59.20;;;;;;5053537;28;20187;-17
2021/12/30 08:21:47;;;;;;;1.20;0.70;;;21.90;60.00;;;;;;5053290;28;20267;-16
2021/12/30 08:24:13;;;;;;;0.50;0.50;;;21.80;61.70;;;;;;5052406;28;20266;-16
2021/12/30 08:26:39;;;;;;;0.57;0.57;;;21.70;62.00;;;;;;5036234;28;20174;-17
2021/12/30 08:29:06;;;;;;;0.53;0.53;;;21.60;62.80;;;;;;5036546;28;20190;-16
2021/12/30 08:31:37;;;;;;;0.50;0.50;;;21.50;63.70;;;;;;5036138;28;20175;-16
2021/12/30 08:34:04;;;;;;;1.37;0.50;;;21.40;64.90;;;;;;5053685;28;20178;-16
2021/12/30 08:36:30;;;;;;;0.83;0.60;;;21.20;66.10;;;;;;5054310;28;20209;-17
2021/12/30 08:38:56;;;;;;;0.50;0.50;;;21.10;67.00;;;;;;5035583;28;20171;-17
2021/12/30 08:41:22;;;;;;;0.50;0.50;;;21.10;67.90;;;;;;5033904;28;20175;-17
2021/12/30 08:43:48;;;;;;;0.70;0.60;;;20.90;69.10;;;;;;5051316;28;20232;-15
2021/12/30 08:46:14;;;;;;;0.60;0.60;;;20.80;70.10;;;;;;5053104;28;20179;-16
2021/12/30 08:48:41;;;;;;;0.90;0.60;;;20.70;71.00;;;;;;5052378;28;20430;-16
2021/12/30 08:51:07;;;;;;;1.73;0.50;;;20.60;72.00;;;;;;5053685;28;20168;-17
2021/12/30 08:53:40;;;;;;;0.80;0.60;;;20.60;73.10;;;;;;5053151;28;20218;-17
2021/12/30 08:56:07;;;;;;;0.50;0.50;;;20.50;73.90;;;;;;5052819;28;20201;-16
2021/12/30 08:58:32;;;;;;;0.50;0.50;;;20.40;74.30;;;;;;5035789;28;20200;-17
2021/12/30 09:00:58;;;;;;;0.60;0.60;;;20.40;75.00;;;;;;5034191;28;20457;-18
2021/12/30 09:03:25;;;;;;;0.50;0.50;;;20.30;75.60;;;;;;5051575;28;20187;-16
2021/12/30 09:05:50;;;;;;;0.83;0.50;;;20.30;76.60;;;;;;5033293;28;20180;-16
2021/12/30 09:08:16;;;;;;;1.33;0.77;;;20.20;77.60;;;;;;5052980;28;20175;-16
2021/12/30 09:10:45;;;;;;;0.93;0.57;;;20.10;78.30;;;;;;5052534;28;20182;-17
2021/12/30 09:13:16;;;;;;;0.87;0.57;;;20.00;79.20;;;;;;5036354;28;20225;-18
2021/12/30 09:15:43;;;;;;;1.13;0.63;;;20.00;80.10;;;;;;5036093;28;20225;-17
2021/12/30 09:18:09;;;;;;;1.87;0.87;;;20.00;80.80;;;;;;5053010;28;20495;-17
2021/12/30 09:20:37;;;;;;;0.77;0.50;;;19.80;81.40;;;;;;5031897;28;20563;-18
2021/12/30 09:23:03;;;;;;;0.70;0.70;;;19.80;82.60;;;;;;5035390;28;20176;-18
2021/12/30 09:25:30;;;;;;;0.97;0.50;;;19.70;82.70;;;;;;5034319;28;20177;-16
2021/12/30 09:27:56;;;;;;;2.33;0.73;;;19.80;83.30;;;;;;5033619;28;20185;-16
2021/12/30 09:30:24;;;;;;;0.93;0.70;;;19.90;83.10;;;;;;5051753;28;20442;-17
2021/12/30 09:32:53;;;;;;;1.40;0.63;;;20.50;80.70;;;;;;5034343;28;20284;-16
2021/12/30 09:35:19;;;;;;;0.73;0.70;;;21.20;75.00;;;;;;5034704;28;20172;-16
2021/12/30 09:37:45;;;;;;;1.73;0.80;;;22.00;68.70;;;;;;5051219;28;20259;-16
2021/12/30 09:40:15;;;;;;;1.73;0.60;;;22.90;61.70;;;;;;5051842;28;20199;-16
2021/12/30 09:42:48;;;;;;;1.63;0.60;;;23.70;57.90;;;;;;5051910;28;20171;-16
2021/12/30 09:45:15;;;;;;;2.03;0.90;;;24.00;56.40;;;;;;5033813;28;20172;-16
2021/12/30 09:47:48;;;;;;;0.67;0.60;;;23.90;56.20;;;;;;5051701;28;20172;-16
2021/12/30 09:50:17;;;;;;;1.67;0.70;;;23.80;56.60;;;;;;5032708;28;20171;-17
2021/12/30 09:52:43;;;;;;;1.33;0.63;;;23.60;57.10;;;;;;5033882;28;20184;-17
2021/12/30 09:55:09;;;;;;;3.13;0.93;;;23.50;57.50;;;;;;5050173;28;20187;-17
2021/12/30 09:57:36;;;;;;;1.80;0.80;;;23.40;58.00;;;;;;5050153;28;20203;-17
2021/12/30 10:00:09;;;;;;;0.97;0.77;;;23.40;58.40;;;;;;5050829;28;20461;-18
2021/12/30 10:02:34;;;;;;;0.93;0.80;;;23.20;59.30;;;;;;5050388;28;20407;-18
2021/12/30 10:05:09;;;;;;;3.80;0.90;;;23.20;59.60;;;;;;5051782;28;20172;-17
2021/12/30 10:07:39;;;;;;;3.57;0.83;;;22.90;61.50;;;;;;5049898;28;20179;-16
2021/12/30 10:10:29;;;;;;;2.23;0.70;;;22.80;64.00;;;;;;5049929;28;20179;-16
2021/12/30 10:12:55;;;;;;;1.63;0.80;;;22.50;66.00;;;;;;5046356;28;20180;-17
2021/12/30 10:15:24;;;;;;;3.13;0.80;;;22.50;67.50;;;;;;5031493;28;20180;-17
2021/12/30 10:18:00;;;;;;;2.50;0.93;;;22.40;68.10;;;;;;5031589;28;20572;-17
2021/12/30 10:20:30;;;;;;;0.90;0.80;;;22.20;69.10;;;;;;5051105;28;20240;-16
2021/12/30 10:23:09;;;;;;;1.80;0.70;;;22.10;70.30;;;;;;5050364;28;20165;-18
2021/12/30 10:25:37;;;;;;;1.40;0.80;;;22.00;70.60;;;;;;5050819;28;20172;-17
2021/12/30 10:28:24;;;;;;;2.50;1.00;;;21.90;71.40;;;;;;5051130;28;20183;-16
2021/12/30 10:30:54;;;;;;;2.00;0.70;;;21.70;73.20;;;;;;5049495;28;20182;-16
2021/12/30 10:33:26;;;;;;;0.83;0.63;;;21.60;74.40;;;;;;5050533;28;20175;-18
2021/12/30 10:35:53;;;;;;;1.43;0.80;;;21.50;75.50;;;;;;5051696;28;20231;-18
2021/12/30 10:38:20;;;;;;;3.10;0.90;;;21.30;76.70;;;;;;5034272;28;20231;-18
2021/12/30 10:40:51;;;;;;;2.50;1.37;;;21.20;77.80;;;;;;5051639;28;20200;-17
2021/12/30 10:43:30;;;;;;;1.47;0.80;;;21.00;79.00;;;;;;5035155;28;20198;-17
2021/12/30 10:46:16;;;;;;;4.00;0.80;;;20.90;80.90;;;;;;5036102;28;20188;-17
2021/12/30 10:48:49;;;;;;;3.77;0.90;;;20.80;81.00;;;;;;5053426;28;20183;-16
2021/12/30 10:51:37;;;;;;;2.10;0.80;;;20.70;82.00;;;;;;5051567;28;20175;-18
2021/12/30 10:54:21;;;;;;;2.40;0.90;;;20.60;82.70;;;;;;5053554;28;20211;-17
2021/12/30 10:56:54;;;;;;;2.07;0.87;;;20.50;83.50;;;;;;5050584;28;20210;-16
2021/12/30 10:59:23;;;;;;;2.47;1.10;;;20.40;84.10;;;;;;5051607;28;20343;-17
2021/12/30 11:01:58;;;;;;;3.20;0.97;;;20.40;85.30;;;;;;5033481;28;20168;-17
2021/12/30 11:04:40;;;;;;;3.60;1.23;;;20.30;88.00;;;;;;5053409;28;20174;-16
2021/12/30 11:07:09;;;;;;;4.63;1.80;;;20.20;89.10;;;;;;5030335;28;20187;-17
2021/12/30 11:09:35;;;;;;;2.53;1.00;;;20.20;89.10;;;;;;5034956;28;20178;-17
2021/12/30 11:12:05;;;;;;;5.93;1.30;;;20.10;89.30;;;;;;5052258;28;20182;-17
2021/12/30 11:14:35;;;;;;;4.73;1.37;;;20.10;90.10;;;;;;5035332;28;20186;-17
2021/12/30 11:17:16;;;;;;;4.37;1.50;;;20.00;90.40;;;;;;5034776;28;20275;-16
2021/12/30 11:19:48;;;;;;;7.67;1.20;;;20.00;90.30;;;;;;5034281;28;20332;-16
2021/12/30 11:22:17;;;;;;;4.30;1.20;;;20.00;90.30;;;;;;5033723;28;20200;-16
2021/12/30 11:34:50;;;;;;;1.53;1.00;;;19.80;90.50;;;;;;5051540;28;20255;-17
2021/12/30 11:37:17;;;;;;;4.07;1.10;;;19.80;90.50;;;;;;5053200;28;20645;-16
2021/12/30 11:39:46;;;;;;;3.60;1.57;;;19.80;90.60;;;;;;5034441;28;20210;-16
2021/12/30 11:42:28;;;;;;;3.33;1.10;;;19.80;90.80;;;;;;5052130;28;20171;-17
2021/12/30 11:44:58;;;;;;;1.83;0.97;;;19.70;90.70;;;;;;5050295;28;20187;-17
2021/12/30 11:47:36;;;;;;;4.23;1.30;;;19.70;90.80;;;;;;5034767;28;20184;-15
2021/12/30 11:50:17;;;;;;;5.10;1.43;;;19.60;90.90;;;;;;5054119;28;20424;-16
2021/12/30 11:53:04;;;;;;;4.03;1.43;;;19.60;90.80;;;;;;5051517;28;20237;-20
2021/12/30 11:55:57;;;;;;;6.93;1.20;;;19.60;90.90;;;;;;5034369;28;20189;-16
2021/12/30 12:01:03;;;;;;;5.47;1.70;;;19.60;91.40;;;;;;5051768;28;20792;-17
2021/12/30 12:03:40;;;;;;;4.87;1.90;;;19.50;91.40;;;;;;5039979;28;20170;-15
2021/12/30 12:06:30;;;;;;;4.83;1.87;;;19.60;91.60;;;;;;5056142;28;20221;-15
2021/12/30 12:08:59;;;;;;;5.97;2.03;;;19.50;91.60;;;;;;5051706;28;20178;-15
2021/12/30 12:11:56;;;;;;;6.23;2.00;;;19.50;91.80;;;;;;5032122;28;20188;-16
2021/12/30 12:14:23;;;;;;;4.80;1.60;;;19.50;91.90;;;;;;5051021;28;20165;-17
2021/12/30 12:17:00;;;;;;;5.77;1.67;;;19.50;92.00;;;;;;5033648;28;20301;-16
2021/12/30 12:19:41;;;;;;;6.93;2.00;;;19.40;92.00;;;;;;5050624;28;20288;-16
2021/12/30 12:22:28;;;;;;;5.93;2.33;;;19.40;92.20;;;;;;5050007;28;20159;-17
2021/12/30 12:25:13;;;;;;;5.43;1.90;;;19.40;92.30;;;;;;5049871;28;20302;-16
2021/12/30 12:27:51;;;;;;;5.60;1.77;;;19.40;92.40;;;;;;5031777;28;20170;-16
2021/12/30 12:30:32;;;;;;;4.43;1.60;;;19.40;92.50;;;;;;5031442;28;20616;-16
2021/12/30 12:33:20;;;;;;;5.70;1.90;;;19.40;92.60;;;;;;5050083;28;20318;-16
2021/12/30 12:35:45;;;;;;;3.87;1.73;;;19.40;92.70;;;;;;5051521;28;20347;-15
2021/12/30 12:38:11;;;;;;;5.17;2.10;;;19.40;92.90;;;;;;5033531;28;20175;-17
2021/12/30 12:40:43;;;;;;;5.10;1.63;;;19.40;92.90;;;;;;5033196;28;20171;-16
2021/12/30 12:43:25;;;;;;;6.23;1.93;;;19.40;92.90;;;;;;5033318;28;20421;-17
2021/12/30 12:46:03;;;;;;;3.53;1.63;;;19.40;92.90;;;;;;5033218;28;20184;-16
2021/12/30 12:48:32;;;;;;;5.03;1.80;;;19.40;92.90;;;;;;5033982;28;20275;-16
2021/12/30 12:51:08;;;;;;;5.90;1.77;;;19.40;93.10;;;;;;5051743;28;20450;-16
2021/12/30 12:53:33;;;;;;;3.87;1.50;;;19.30;93.10;;;;;;5051527;28;20261;-16
2021/12/30 12:56:00;;;;;;;2.67;1.50;;;19.30;93.40;;;;;;5033338;28;20693;-16
2021/12/30 12:58:33;;;;;;;6.13;1.83;;;19.30;93.20;;;;;;5033009;28;20711;-16
2021/12/30 13:01:00;;;;;;;6.03;1.90;;;19.30;93.30;;;;;;5032585;28;20170;-16
2021/12/30 13:03:27;;;;;;;2.87;1.50;;;19.30;93.30;;;;;;5048038;28;20179;-17
2021/12/30 13:05:53;;;;;;;4.73;1.60;;;19.30;93.40;;;;;;5050351;28;20608;-17